createdAt,value
2023-04-12T00:01:54.766Z,1.20
2023-04-12T00:07:01.145Z,1.10
2023-04-12T00:12:06.220Z,1.20
2023-04-12T00:17:10.050Z,1.42
2023-04-12T00:22:15.976Z,1.73
2023-04-12T00:27:20.288Z,0.98
2023-04-12T00:32:24.039Z,1.60
2023-04-12T00:37:29.379Z,1.27
2023-04-12T00:42:33.034Z,1.50
2023-04-12T00:47:38.269Z,1.60
2023-04-12T00:52:43.738Z,1.90
2023-04-12T00:57:47.518Z,2.03
2023-04-12T01:02:53.069Z,1.80
2023-04-12T01:08:10.679Z,1.65
2023-04-12T01:13:28.664Z,1.77
2023-04-12T01:18:40.741Z,1.92
2023-04-12T01:24:01.369Z,1.67
2023-04-12T01:29:11.208Z,2.53
2023-04-12T01:39:39.404Z,1.42
2023-04-12T01:44:44.481Z,1.52
2023-04-12T01:49:55.716Z,1.92
2023-04-12T01:55:02.768Z,1.60
2023-04-12T02:00:12.485Z,1.50
2023-04-12T02:10:29.221Z,1.92
2023-04-12T02:15:34.446Z,1.62
2023-04-12T02:20:38.298Z,1.80
2023-04-12T02:25:44.107Z,1.83
2023-04-12T02:30:49.400Z,1.20
2023-04-12T02:35:53.400Z,1.65
2023-04-12T02:40:57.384Z,1.98
2023-04-12T02:46:02.598Z,1.90
2023-04-12T02:51:07.746Z,1.73
2023-04-12T02:56:12.978Z,1.48
2023-04-12T03:01:18.378Z,1.62
2023-04-12T03:06:24.965Z,1.33
2023-04-12T03:11:29.627Z,1.62
2023-04-12T03:16:36.904Z,2.22
2023-04-12T03:21:41.769Z,1.45
2023-04-12T03:26:45.606Z,1.50
2023-04-12T03:31:51.464Z,1.40
2023-04-12T03:36:56.507Z,1.87
2023-04-12T03:42:01.419Z,1.70
2023-04-12T03:47:06.793Z,1.40
2023-04-12T03:52:11.292Z,1.55
2023-04-12T03:57:16.247Z,1.75
2023-04-12T04:02:21.846Z,1.30
2023-04-12T04:07:27.149Z,1.42
2023-04-12T04:12:31.094Z,1.08
2023-04-12T04:17:36.218Z,1.35
2023-04-12T04:22:42.173Z,1.25
2023-04-12T04:27:46.645Z,1.08
2023-04-12T04:32:52.889Z,1.40
2023-04-12T04:37:57.624Z,1.60
2023-04-12T04:43:03.485Z,1.60
2023-04-12T04:48:09.704Z,1.70
2023-04-12T04:53:13.523Z,1.30
2023-04-12T04:58:17.564Z,1.70
2023-04-12T05:03:23.391Z,1.80
2023-04-12T05:08:28.596Z,1.70
2023-04-12T05:13:32.359Z,1.37
2023-04-12T05:18:37.414Z,1.65
2023-04-12T05:23:44.334Z,1.48
2023-04-12T05:28:48.326Z,1.60
2023-04-12T05:33:54.667Z,1.73
2023-04-12T05:39:00.600Z,1.87
2023-04-12T05:44:04.625Z,2.10
2023-04-12T05:49:09.874Z,1.70
2023-04-12T05:54:14.379Z,2.40
2023-04-12T05:59:18.727Z,2.35
2023-04-12T06:04:29.883Z,3.28
2023-04-12T06:09:38.809Z,3.15
2023-04-12T06:14:42.625Z,3.65
2023-04-12T06:19:48.072Z,3.90
2023-04-12T06:24:52.159Z,3.83
2023-04-12T06:29:56.375Z,4.70
2023-04-12T06:35:02.316Z,4.10
2023-04-12T06:40:07.319Z,4.18
2023-04-12T06:45:12.001Z,5.12
2023-04-12T06:50:18.471Z,5.25
2023-04-12T06:55:22.519Z,4.72
2023-04-12T07:00:26.423Z,4.40
2023-04-12T07:05:31.694Z,3.97
2023-04-12T07:10:36.176Z,5.47
2023-04-12T07:15:39.905Z,5.00
2023-04-12T07:20:45.054Z,4.95
2023-04-12T07:25:48.797Z,5.40
2023-04-12T07:30:52.523Z,5.97
2023-04-12T07:35:57.677Z,5.22
2023-04-12T07:41:01.362Z,5.07
2023-04-12T07:46:08.406Z,4.35
2023-04-12T07:51:13.735Z,4.35
2023-04-12T07:56:17.420Z,4.32
2023-04-12T08:01:21.288Z,4.55
2023-04-12T08:06:28.343Z,5.47
2023-04-12T08:11:35.357Z,5.93
2023-04-12T08:16:39.060Z,6.18
2023-04-12T08:21:44.164Z,4.45
2023-04-12T08:26:47.962Z,5.78
2023-04-12T08:31:52.467Z,5.93
2023-04-12T08:37:00.312Z,6.78
2023-04-12T08:42:05.930Z,5.45
2023-04-12T08:47:12.542Z,6.15
2023-04-12T08:52:18.040Z,8.10
2023-04-12T08:57:22.087Z,6.95
2023-04-12T09:02:26.193Z,6.35
2023-04-12T09:07:31.380Z,5.30
2023-04-12T09:12:35.230Z,6.35
2023-04-12T09:17:40.490Z,6.18
2023-04-12T09:22:46.796Z,5.35
2023-04-12T09:27:51.761Z,5.37
2023-04-12T09:32:55.790Z,4.90
2023-04-12T09:38:08.742Z,5.28
2023-04-12T09:43:12.574Z,3.62
2023-04-12T09:48:21.781Z,4.00
2023-04-12T09:53:27.139Z,4.20
2023-04-12T09:58:32.889Z,4.53
2023-04-12T10:03:37.118Z,4.65
2023-04-12T10:08:43.249Z,3.47
2023-04-12T10:13:49.121Z,3.50
2023-04-12T10:18:53.174Z,3.45
2023-04-12T10:23:58.952Z,3.58
2023-04-12T10:29:24.442Z,2.37
2023-04-12T10:34:28.912Z,3.37
2023-04-12T10:39:39.164Z,2.42
2023-04-12T10:44:43.116Z,3.47
2023-04-12T10:50:20.344Z,3.15
2023-04-12T10:55:33.200Z,2.90
2023-04-12T11:01:12.778Z,2.53
2023-04-12T11:06:27.042Z,2.80
2023-04-12T11:11:37.202Z,2.55
2023-04-12T11:17:14.704Z,2.22
2023-04-12T11:22:20.349Z,2.78
2023-04-12T11:27:26.725Z,1.80
2023-04-12T11:32:34.163Z,2.47
2023-04-12T11:37:39.115Z,1.73
2023-04-12T11:42:44.292Z,2.00
2023-04-12T11:47:48.138Z,2.12
2023-04-12T11:52:51.900Z,1.95
2023-04-12T11:57:56.962Z,2.62
2023-04-12T12:03:07.545Z,2.58
2023-04-12T12:08:12.876Z,2.00
2023-04-12T12:13:20.204Z,2.10
2023-04-12T12:18:28.767Z,2.70
2023-04-12T12:23:33.359Z,2.40
2023-04-12T12:28:39.800Z,2.60
2023-04-12T12:33:47.102Z,2.05
2023-04-12T12:38:54.341Z,2.45
2023-04-12T12:43:59.654Z,0.80
2023-04-12T12:49:03.669Z,1.25
2023-04-12T12:54:07.724Z,1.70
2023-04-12T12:59:12.825Z,1.12
2023-04-12T13:04:16.688Z,1.17
2023-04-12T13:09:20.437Z,1.10
2023-04-12T13:14:25.642Z,1.17
2023-04-12T13:19:29.382Z,0.90
2023-04-12T13:24:33.327Z,1.17
2023-04-12T13:29:38.766Z,0.93
2023-04-12T13:34:42.555Z,0.88
2023-04-12T13:39:46.286Z,1.20
2023-04-12T13:44:51.352Z,0.75
2023-04-12T13:49:55.330Z,0.90
2023-04-12T13:54:59.623Z,1.27
2023-04-12T14:00:05.610Z,1.15
2023-04-12T14:05:11.438Z,0.98
2023-04-12T14:10:15.401Z,1.08
2023-04-12T14:15:20.862Z,0.50
2023-04-12T14:20:24.784Z,0.52
2023-04-12T14:25:28.485Z,0.45
2023-04-12T14:30:33.992Z,0.60
2023-04-12T14:35:37.774Z,0.77
2023-04-12T14:40:41.610Z,0.88
2023-04-12T14:45:46.728Z,0.90
2023-04-12T14:50:50.498Z,1.00
2023-04-12T14:55:54.271Z,1.45
2023-04-12T15:01:00.901Z,1.02
2023-04-12T15:06:05.048Z,1.10
2023-04-12T15:11:10.259Z,1.40
2023-04-12T15:16:15.512Z,1.50
2023-04-12T15:21:19.317Z,1.45
2023-04-12T15:26:23.097Z,1.45
2023-04-12T15:31:28.695Z,1.75
2023-04-12T15:36:34.756Z,1.12
2023-04-12T15:41:40.475Z,1.80
2023-04-12T15:46:53.308Z,1.58
2023-04-12T15:52:04.116Z,1.67
2023-04-12T15:57:11.559Z,2.72
2023-04-12T16:02:17.195Z,1.73
2023-04-12T16:07:20.980Z,1.98
2023-04-12T16:12:24.802Z,2.00
2023-04-12T16:17:30.177Z,2.25
2023-04-12T16:22:33.871Z,2.12
2023-04-12T16:27:37.541Z,2.12
2023-04-12T16:32:42.763Z,2.10
2023-04-12T16:37:47.040Z,1.90
2023-04-12T16:42:50.800Z,2.30
2023-04-12T16:47:56.020Z,2.00
2023-04-12T16:53:01.569Z,2.00
2023-04-12T16:58:05.449Z,2.17
2023-04-12T17:03:11.446Z,1.92
2023-04-12T17:08:15.680Z,1.80
2023-04-12T17:13:20.422Z,2.33
2023-04-12T17:18:25.784Z,1.95
2023-04-12T17:23:29.695Z,2.33
2023-04-12T17:28:37.826Z,2.47
2023-04-12T17:33:43.259Z,2.72
2023-04-12T17:38:46.974Z,2.40
2023-04-12T17:43:50.899Z,1.62
2023-04-12T17:48:58.147Z,1.70
2023-04-12T17:54:03.596Z,1.67
2023-04-12T17:59:07.329Z,1.20
2023-04-12T18:04:12.716Z,1.08
2023-04-12T18:09:16.871Z,1.73
2023-04-12T18:14:20.781Z,1.30
2023-04-12T18:19:26.003Z,0.93
2023-04-12T18:24:29.810Z,0.90
2023-04-12T18:29:33.806Z,0.93
2023-04-12T18:34:38.920Z,1.42
2023-04-12T18:39:42.870Z,1.40
2023-04-12T18:44:46.685Z,1.58
2023-04-12T18:49:51.747Z,1.35
2023-04-12T18:54:55.485Z,1.37
2023-04-12T18:59:59.274Z,1.27
2023-04-12T19:05:05.410Z,1.30
2023-04-12T19:10:10.119Z,1.67
2023-04-12T19:15:13.846Z,1.50
2023-04-12T19:20:19.199Z,1.35
2023-04-12T19:25:25.586Z,2.08
2023-04-12T19:30:30.722Z,1.37
2023-04-12T19:35:36.003Z,1.10
2023-04-12T19:40:39.741Z,1.50
2023-04-12T19:45:44.285Z,1.17
2023-04-12T19:50:49.525Z,1.33
2023-04-12T19:55:57.070Z,1.30
2023-04-12T20:01:02.943Z,0.70
2023-04-12T20:06:08.852Z,1.12
2023-04-12T20:11:13.682Z,1.33
2023-04-12T20:16:17.586Z,0.90
2023-04-12T20:21:23.322Z,0.82
2023-04-12T20:26:28.318Z,0.80
2023-04-12T20:31:32.639Z,1.02
2023-04-12T20:36:37.827Z,1.15
2023-04-12T20:41:46.189Z,0.90
2023-04-12T20:51:56.795Z,1.30
2023-04-12T20:57:04.102Z,1.30
2023-04-12T21:02:09.214Z,1.27
2023-04-12T21:07:17.974Z,1.12
2023-04-12T21:12:21.700Z,0.90
2023-04-12T21:17:26.013Z,1.00
2023-04-12T21:22:31.172Z,0.70
2023-04-12T21:27:35.187Z,1.10
2023-04-12T21:32:39.014Z,1.02
2023-04-12T21:37:44.494Z,1.40
2023-04-12T21:42:48.249Z,0.68
2023-04-12T21:47:54.139Z,0.88
2023-04-12T21:52:59.239Z,1.20
2023-04-12T21:58:03.472Z,0.73
2023-04-12T22:03:07.366Z,1.05
2023-04-12T22:08:12.655Z,1.05
2023-04-12T22:13:18.092Z,0.82
2023-04-12T22:18:22.029Z,0.80
2023-04-12T22:23:27.110Z,0.90
2023-04-12T22:28:30.782Z,0.60
2023-04-12T22:33:34.460Z,1.27
2023-04-12T22:38:39.583Z,1.02
2023-04-12T22:43:43.383Z,1.33
2023-04-12T22:48:47.685Z,0.80
2023-04-12T22:53:52.761Z,0.95
2023-04-12T22:58:56.668Z,0.80
2023-04-12T23:04:01.034Z,1.05
2023-04-12T23:09:06.393Z,1.30
2023-04-12T23:14:10.742Z,0.68
2023-04-12T23:19:14.957Z,0.95
2023-04-12T23:24:20.101Z,1.50
2023-04-12T23:29:25.554Z,0.98
2023-04-12T23:34:30.735Z,0.60
2023-04-12T23:39:35.883Z,0.93
2023-04-12T23:44:39.524Z,0.70
2023-04-12T23:49:43.319Z,1.12
2023-04-12T23:54:48.410Z,0.57
2023-04-12T23:59:52.337Z,1.00
